createdAt,value
2023-02-03T00:00:36.877Z,1015.83
2023-02-03T00:01:36.857Z,1015.77
2023-02-03T00:02:36.824Z,1015.74
2023-02-03T00:03:36.788Z,1015.78
2023-02-03T00:04:36.777Z,1015.76
2023-02-03T00:05:36.812Z,1015.76
2023-02-03T00:06:36.791Z,1015.79
2023-02-03T00:07:36.747Z,1015.73
2023-02-03T00:08:36.744Z,1015.80
2023-02-03T00:09:36.696Z,1015.78
2023-02-03T00:10:36.741Z,1015.78
2023-02-03T00:11:36.747Z,1015.77
2023-02-03T00:12:36.692Z,1015.75
2023-02-03T00:13:36.671Z,1015.70
2023-02-03T00:14:36.663Z,1015.65
2023-02-03T00:15:36.679Z,1015.66
2023-02-03T00:16:36.722Z,1015.62
2023-02-03T00:17:36.626Z,1015.64
2023-02-03T00:18:36.623Z,1015.62
2023-02-03T00:19:36.598Z,1015.58
2023-02-03T00:20:36.657Z,1015.55
2023-02-03T00:21:36.568Z,1015.52
2023-02-03T00:22:36.581Z,1015.50
2023-02-03T00:23:36.549Z,1015.51
2023-02-03T00:24:36.567Z,1015.42
2023-02-03T00:25:36.573Z,1015.34
2023-02-03T00:26:36.510Z,1015.35
2023-02-03T00:27:36.521Z,1015.29
2023-02-03T00:28:36.485Z,1015.29
2023-02-03T00:29:36.494Z,1015.30
2023-02-03T00:30:36.541Z,1015.26
2023-02-03T00:31:36.573Z,1015.30
2023-02-03T00:32:36.501Z,1015.26
2023-02-03T00:33:36.458Z,1015.23
2023-02-03T00:34:36.453Z,1015.24
2023-02-03T00:35:36.461Z,1015.22
2023-02-03T00:36:36.438Z,1015.20
2023-02-03T00:37:36.430Z,1015.18
2023-02-03T00:38:36.394Z,1015.16
2023-02-03T00:39:36.370Z,1015.15
2023-02-03T00:40:36.406Z,1015.16
2023-02-03T00:41:36.371Z,1015.14
2023-02-03T00:42:36.352Z,1015.17
2023-02-03T00:43:36.315Z,1015.11
2023-02-03T00:44:36.315Z,1015.11
2023-02-03T00:45:36.361Z,1015.08
2023-02-03T00:46:36.333Z,1015.09
2023-02-03T00:47:36.296Z,1015.06
2023-02-03T00:48:36.276Z,1015.07
2023-02-03T00:49:36.263Z,1015.02
2023-02-03T00:50:36.257Z,1015.01
2023-02-03T00:51:36.289Z,1014.96
2023-02-03T00:52:36.249Z,1014.92
2023-02-03T00:53:36.211Z,1014.91
2023-02-03T00:54:36.201Z,1014.93
2023-02-03T00:55:36.198Z,1014.86
2023-02-03T00:56:36.215Z,1014.89
2023-02-03T00:57:36.154Z,1014.86
2023-02-03T00:58:36.144Z,1014.88
2023-02-03T00:59:36.151Z,1014.80
2023-02-03T01:00:36.136Z,1014.77
2023-02-03T01:01:36.184Z,1014.74
2023-02-03T01:02:36.160Z,1014.73
2023-02-03T01:03:36.083Z,1014.65
2023-02-03T01:04:36.084Z,1014.65
2023-02-03T01:05:36.076Z,1014.60
2023-02-03T01:06:36.111Z,1014.62
2023-02-03T01:07:36.052Z,1014.60
2023-02-03T01:08:36.042Z,1014.56
2023-02-03T01:09:36.010Z,1014.55
2023-02-03T01:10:36.022Z,1014.50
2023-02-03T01:11:36.047Z,1014.47
2023-02-03T01:12:35.996Z,1014.45
2023-02-03T01:13:36.004Z,1014.40
2023-02-03T01:14:35.975Z,1014.36
2023-02-03T01:15:35.958Z,1014.33
2023-02-03T01:16:36.063Z,1014.28
2023-02-03T01:17:35.932Z,1014.31
2023-02-03T01:18:35.974Z,1014.24
2023-02-03T01:19:35.922Z,1014.24
2023-02-03T01:20:35.901Z,1014.22
2023-02-03T01:21:35.923Z,1014.17
2023-02-03T01:22:35.881Z,1014.12
2023-02-03T01:23:35.875Z,1014.09
2023-02-03T01:24:35.863Z,1014.01
2023-02-03T01:25:35.848Z,1014.00
2023-02-03T01:26:35.875Z,1014.03
2023-02-03T01:27:35.986Z,1014.11
2023-02-03T01:28:35.784Z,1014.09
2023-02-03T01:29:35.801Z,1014.06
2023-02-03T01:30:35.835Z,1014.16
2023-02-03T01:31:35.862Z,1014.17
2023-02-03T01:32:35.753Z,1014.17
2023-02-03T01:33:35.749Z,1014.13
2023-02-03T01:34:35.730Z,1014.15
2023-02-03T01:35:35.729Z,1014.10
2023-02-03T01:36:35.767Z,1014.09
2023-02-03T01:37:35.690Z,1014.10
2023-02-03T01:38:35.687Z,1014.05
2023-02-03T01:39:35.690Z,1014.01
2023-02-03T01:40:35.689Z,1013.97
2023-02-03T01:41:35.691Z,1013.98
2023-02-03T01:42:35.646Z,1013.94
2023-02-03T01:43:35.629Z,1013.92
2023-02-03T01:44:35.601Z,1013.90
2023-02-03T01:45:35.612Z,1013.91
2023-02-03T01:46:35.625Z,1013.88
2023-02-03T01:47:35.584Z,1013.83
2023-02-03T01:48:35.576Z,1013.84
2023-02-03T01:49:35.569Z,1013.83
2023-02-03T01:50:35.552Z,1013.79
2023-02-03T01:51:35.583Z,1013.82
2023-02-03T01:52:35.530Z,1013.79
2023-02-03T01:53:35.520Z,1013.80
2023-02-03T01:54:35.510Z,1013.82
2023-02-03T01:55:35.486Z,1013.83
2023-02-03T01:56:35.521Z,1013.84
2023-02-03T01:57:35.462Z,1013.85
2023-02-03T01:58:35.438Z,1013.79
2023-02-03T01:59:35.444Z,1013.72
2023-02-03T02:00:35.435Z,1013.69
2023-02-03T02:01:35.561Z,1013.68
2023-02-03T02:02:35.527Z,1013.63
2023-02-03T02:03:35.438Z,1013.60
2023-02-03T02:04:35.389Z,1013.59
2023-02-03T02:05:35.403Z,1013.58
2023-02-03T02:06:35.408Z,1013.53
2023-02-03T02:07:35.357Z,1013.52
2023-02-03T02:08:35.347Z,1013.53
2023-02-03T02:09:35.321Z,1013.52
2023-02-03T02:10:35.310Z,1013.51
2023-02-03T02:11:35.366Z,1013.46
2023-02-03T02:12:35.292Z,1013.35
2023-02-03T02:13:35.284Z,1013.37
2023-02-03T02:14:35.277Z,1013.34
2023-02-03T02:15:35.388Z,1013.38
2023-02-03T02:16:35.314Z,1013.35
2023-02-03T02:17:35.236Z,1013.36
2023-02-03T02:18:35.240Z,1013.38
2023-02-03T02:19:35.260Z,1013.30
2023-02-03T02:20:35.212Z,1013.30
2023-02-03T02:21:35.216Z,1013.30
2023-02-03T02:22:35.181Z,1013.26
2023-02-03T02:23:35.190Z,1013.16
2023-02-03T02:24:35.163Z,1013.11
2023-02-03T02:25:35.174Z,1013.10
2023-02-03T02:26:35.169Z,1013.01
2023-02-03T02:27:35.109Z,1013.01
2023-02-03T02:28:35.111Z,1013.01
2023-02-03T02:29:35.096Z,1013.01
2023-02-03T02:30:35.142Z,1012.95
2023-02-03T02:31:35.243Z,1012.95
2023-02-03T02:32:35.062Z,1012.99
2023-02-03T02:33:35.043Z,1012.95
2023-02-03T02:34:35.040Z,1012.90
2023-02-03T02:35:35.040Z,1012.89
2023-02-03T02:36:35.071Z,1012.90
2023-02-03T02:37:35.001Z,1012.92
2023-02-03T02:38:35.019Z,1012.89
2023-02-03T02:39:34.991Z,1012.83
2023-02-03T02:40:34.984Z,1012.72
2023-02-03T02:41:35.026Z,1012.76
2023-02-03T02:42:34.976Z,1012.74
2023-02-03T02:43:34.944Z,1012.71
2023-02-03T02:44:34.936Z,1012.68
2023-02-03T02:45:34.952Z,1012.68
2023-02-03T02:46:34.993Z,1012.63
2023-02-03T02:47:34.912Z,1012.62
2023-02-03T02:48:34.893Z,1012.53
2023-02-03T02:49:34.880Z,1012.56
2023-02-03T02:50:34.879Z,1012.55
2023-02-03T02:51:34.884Z,1012.50
2023-02-03T02:52:34.836Z,1012.43
2023-02-03T02:53:34.826Z,1012.39
2023-02-03T02:54:34.833Z,1012.40
2023-02-03T02:55:34.814Z,1012.32
2023-02-03T02:56:34.860Z,1012.29
2023-02-03T02:57:34.776Z,1012.24
2023-02-03T02:58:34.758Z,1012.23
2023-02-03T02:59:34.786Z,1012.20
2023-02-03T03:00:34.738Z,1012.19
2023-02-03T03:01:34.838Z,1012.14
2023-02-03T03:02:34.747Z,1012.09
2023-02-03T03:03:34.713Z,1012.08
2023-02-03T03:04:34.753Z,1012.05
2023-02-03T03:05:34.695Z,1012.04
2023-02-03T03:06:34.727Z,1012.03
2023-02-03T03:07:34.690Z,1012.00
2023-02-03T03:08:34.688Z,1011.96
2023-02-03T03:09:34.664Z,1011.91
2023-02-03T03:10:34.639Z,1011.90
2023-02-03T03:11:34.686Z,1011.87
2023-02-03T03:12:34.616Z,1011.86
2023-02-03T03:13:34.601Z,1011.79
2023-02-03T03:14:34.619Z,1011.81
2023-02-03T03:15:34.656Z,1011.80
2023-02-03T03:16:34.594Z,1011.83
2023-02-03T03:17:34.549Z,1011.82
2023-02-03T03:18:34.560Z,1011.79
2023-02-03T03:19:34.554Z,1011.75
2023-02-03T03:20:34.520Z,1011.74
2023-02-03T03:21:34.558Z,1011.76
2023-02-03T03:22:34.518Z,1011.76
2023-02-03T03:23:34.499Z,1011.77
2023-02-03T03:24:34.472Z,1011.78
2023-02-03T03:25:34.462Z,1011.75
2023-02-03T03:26:34.483Z,1011.72
2023-02-03T03:27:34.468Z,1011.72
2023-02-03T03:28:34.428Z,1011.68
2023-02-03T03:29:34.404Z,1011.66
2023-02-03T03:30:34.420Z,1011.63
2023-02-03T03:31:34.546Z,1011.62
2023-02-03T03:32:34.411Z,1011.58
2023-02-03T03:33:34.374Z,1011.54
2023-02-03T03:34:34.363Z,1011.55
2023-02-03T03:35:34.343Z,1011.52
2023-02-03T03:36:34.354Z,1011.46
2023-02-03T03:37:34.377Z,1011.42
2023-02-03T03:38:34.334Z,1011.41
2023-02-03T03:39:34.291Z,1011.42
2023-02-03T03:40:34.281Z,1011.38
2023-02-03T03:41:34.321Z,1011.28
2023-02-03T03:42:34.260Z,1011.23
2023-02-03T03:43:34.273Z,1011.19
2023-02-03T03:44:34.250Z,1011.13
2023-02-03T03:45:34.264Z,1011.10
2023-02-03T03:46:34.287Z,1011.05
2023-02-03T03:47:34.244Z,1011.03
2023-02-03T03:48:34.198Z,1011.04
2023-02-03T03:49:34.215Z,1011.04
2023-02-03T03:50:34.171Z,1010.97
2023-02-03T03:51:34.216Z,1010.95
2023-02-03T03:52:34.159Z,1010.94
2023-02-03T03:53:34.153Z,1010.89
2023-02-03T03:54:34.147Z,1010.84
2023-02-03T03:55:34.118Z,1010.81
2023-02-03T03:56:34.152Z,1010.81
2023-02-03T03:57:34.105Z,1010.75
2023-02-03T03:58:34.081Z,1010.79
2023-02-03T03:59:34.090Z,1010.74
2023-02-03T04:00:34.067Z,1010.67
2023-02-03T04:01:34.186Z,1010.57
2023-02-03T04:02:34.157Z,1010.52
2023-02-03T04:03:34.036Z,1010.46
2023-02-03T04:04:34.028Z,1010.48
2023-02-03T04:05:34.013Z,1010.45
2023-02-03T04:06:34.012Z,1010.37
2023-02-03T04:07:33.981Z,1010.34
2023-02-03T04:08:33.987Z,1010.34
2023-02-03T04:09:33.970Z,1010.30
2023-02-03T04:10:33.949Z,1010.33
2023-02-03T04:11:33.973Z,1010.25
2023-02-03T04:12:33.922Z,1010.25
2023-02-03T04:13:33.929Z,1010.17
2023-02-03T04:14:33.904Z,1010.17
2023-02-03T04:15:33.915Z,1010.19
2023-02-03T04:16:33.988Z,1010.12
2023-02-03T04:17:33.891Z,1010.10
2023-02-03T04:18:33.871Z,1010.07
2023-02-03T04:19:33.869Z,1010.04
2023-02-03T04:20:33.841Z,1009.95
2023-02-03T04:21:33.851Z,1009.96
2023-02-03T04:22:33.811Z,1009.99
2023-02-03T04:23:33.816Z,1010.01
2023-02-03T04:24:33.841Z,1009.99
2023-02-03T04:25:33.799Z,1010.04
2023-02-03T04:26:33.820Z,1009.95
2023-02-03T04:27:33.768Z,1009.93
2023-02-03T04:28:33.747Z,1009.96
2023-02-03T04:29:33.735Z,1009.85
2023-02-03T04:30:33.760Z,1009.90
2023-02-03T04:31:33.818Z,1009.83
2023-02-03T04:32:33.681Z,1009.94
2023-02-03T04:33:33.710Z,1009.88
2023-02-03T04:34:33.675Z,1009.87
2023-02-03T04:35:33.670Z,1009.89
2023-02-03T04:36:33.690Z,1009.83
2023-02-03T04:37:33.685Z,1009.79
2023-02-03T04:38:33.629Z,1009.78
2023-02-03T04:39:33.631Z,1009.78
2023-02-03T04:40:35.091Z,1009.72
2023-02-03T04:41:33.643Z,1009.70
2023-02-03T04:42:33.567Z,1009.76
2023-02-03T04:43:33.588Z,1009.73
2023-02-03T04:44:33.575Z,1009.66
2023-02-03T04:45:33.648Z,1009.65
2023-02-03T04:46:33.570Z,1009.63
2023-02-03T04:47:33.544Z,1009.65
2023-02-03T04:48:33.520Z,1009.63
2023-02-03T04:49:33.534Z,1009.58
2023-02-03T04:50:33.518Z,1009.62
2023-02-03T04:51:33.534Z,1009.62
2023-02-03T04:52:33.481Z,1009.55
2023-02-03T04:53:33.481Z,1009.66
2023-02-03T04:54:33.444Z,1009.52
2023-02-03T04:55:33.441Z,1009.56
2023-02-03T04:56:33.468Z,1009.45
2023-02-03T04:57:33.427Z,1009.42
2023-02-03T04:58:33.406Z,1009.37
2023-02-03T04:59:33.410Z,1009.30
2023-02-03T05:00:33.377Z,1009.34
2023-02-03T05:01:33.434Z,1009.26
2023-02-03T05:02:33.355Z,1009.27
2023-02-03T05:03:33.405Z,1009.30
2023-02-03T05:04:33.325Z,1009.25
2023-02-03T05:05:33.342Z,1009.20
2023-02-03T05:06:33.356Z,1009.18
2023-02-03T05:07:33.319Z,1009.11
2023-02-03T05:08:33.293Z,1009.15
2023-02-03T05:09:33.286Z,1009.02
2023-02-03T05:10:33.294Z,1009.11
2023-02-03T05:11:33.323Z,1009.13
2023-02-03T05:12:33.246Z,1009.05
2023-02-03T05:13:33.250Z,1009.01
2023-02-03T05:14:33.210Z,1008.93
2023-02-03T05:15:33.210Z,1008.86
2023-02-03T05:16:33.298Z,1008.87
2023-02-03T05:17:33.182Z,1008.92
2023-02-03T05:18:33.169Z,1008.98
2023-02-03T05:19:33.169Z,1008.93
2023-02-03T05:20:33.159Z,1008.96
2023-02-03T05:21:33.185Z,1008.89
2023-02-03T05:22:33.124Z,1008.86
2023-02-03T05:23:35.465Z,1008.81
2023-02-03T05:24:33.097Z,1008.83
2023-02-03T05:25:33.106Z,1008.75
2023-02-03T05:26:33.137Z,1008.73
2023-02-03T05:27:33.115Z,1008.66
2023-02-03T05:28:33.067Z,1008.67
2023-02-03T05:29:33.052Z,1008.70
2023-02-03T05:30:33.050Z,1008.68
2023-02-03T05:31:33.052Z,1008.78
2023-02-03T05:32:33.047Z,1008.76
2023-02-03T05:33:33.009Z,1008.76
2023-02-03T05:34:32.999Z,1008.67
2023-02-03T05:35:32.986Z,1008.72
2023-02-03T05:36:32.984Z,1008.73
2023-02-03T05:37:33.012Z,1008.64
2023-02-03T05:38:32.945Z,1008.69
2023-02-03T05:39:32.940Z,1008.60
2023-02-03T05:40:32.932Z,1008.62
2023-02-03T05:41:32.937Z,1008.61
2023-02-03T05:42:32.958Z,1008.61
2023-02-03T05:43:32.886Z,1008.66
2023-02-03T05:44:32.898Z,1008.64
2023-02-03T05:45:32.890Z,1008.68
2023-02-03T05:46:32.860Z,1008.66
2023-02-03T05:47:32.889Z,1008.61
2023-02-03T05:48:32.839Z,1008.65
2023-02-03T05:49:32.824Z,1008.63
2023-02-03T05:50:32.808Z,1008.66
2023-02-03T05:51:32.789Z,1008.66
2023-02-03T05:52:32.825Z,1008.68
2023-02-03T05:53:32.777Z,1008.62
2023-02-03T05:54:32.769Z,1008.59
2023-02-03T05:55:32.740Z,1008.57
2023-02-03T05:56:32.780Z,1008.61
2023-02-03T05:57:32.758Z,1008.57
2023-02-03T05:58:32.724Z,1008.64
2023-02-03T05:59:32.722Z,1008.65
2023-02-03T06:00:32.738Z,1008.64
2023-02-03T06:01:32.674Z,1008.67
2023-02-03T06:02:32.697Z,1008.70
2023-02-03T06:03:32.722Z,1008.65
2023-02-03T06:04:32.705Z,1008.59
2023-02-03T06:05:32.632Z,1008.59
2023-02-03T06:06:32.638Z,1008.56
2023-02-03T06:07:32.650Z,1008.55
2023-02-03T06:08:32.602Z,1008.56
2023-02-03T06:09:32.621Z,1008.55
2023-02-03T06:10:32.609Z,1008.54
2023-02-03T06:11:32.574Z,1008.54
2023-02-03T06:12:32.594Z,1008.51
2023-02-03T06:13:32.565Z,1008.48
2023-02-03T06:14:32.551Z,1008.46
2023-02-03T06:15:32.513Z,1008.44
2023-02-03T06:16:32.555Z,1008.35
2023-02-03T06:17:32.572Z,1008.33
2023-02-03T06:18:32.500Z,1008.32
2023-02-03T06:19:32.489Z,1008.28
2023-02-03T06:20:32.463Z,1008.21
2023-02-03T06:21:32.472Z,1008.20
2023-02-03T06:22:32.478Z,1008.22
2023-02-03T06:23:32.432Z,1008.20
2023-02-03T06:24:32.429Z,1008.14
2023-02-03T06:25:32.412Z,1008.19
2023-02-03T06:26:32.410Z,1008.14
2023-02-03T06:27:32.448Z,1008.06
2023-02-03T06:28:32.391Z,1008.09
2023-02-03T06:29:32.362Z,1008.11
2023-02-03T06:30:32.434Z,1008.04
2023-02-03T06:31:32.461Z,1008.13
2023-02-03T06:32:32.374Z,1008.16
2023-02-03T06:33:32.320Z,1008.07
2023-02-03T06:34:32.320Z,1008.09
2023-02-03T06:35:32.287Z,1008.03
2023-02-03T06:36:32.290Z,1007.97
2023-02-03T06:37:32.411Z,1007.94
2023-02-03T06:38:32.275Z,1007.91
2023-02-03T06:39:32.236Z,1007.85
2023-02-03T06:40:32.261Z,1007.94
2023-02-03T06:41:32.244Z,1007.96
2023-02-03T06:42:32.307Z,1007.97
2023-02-03T06:43:32.221Z,1007.82
2023-02-03T06:44:32.204Z,1007.79
2023-02-03T06:45:32.184Z,1007.74
2023-02-03T06:46:32.236Z,1007.75
2023-02-03T06:47:32.208Z,1007.74
2023-02-03T06:48:32.193Z,1007.66
2023-02-03T06:49:32.200Z,1007.62
2023-02-03T06:50:32.127Z,1007.50
2023-02-03T06:51:32.109Z,1007.64
2023-02-03T06:52:32.169Z,1007.60
2023-02-03T06:53:32.109Z,1007.57
2023-02-03T06:54:32.081Z,1007.50
2023-02-03T06:55:32.061Z,1007.46
2023-02-03T06:56:32.062Z,1007.45
2023-02-03T06:57:32.084Z,1007.44
2023-02-03T06:58:32.043Z,1007.38
2023-02-03T06:59:32.028Z,1007.32
2023-02-03T07:00:32.380Z,1007.37
2023-02-03T07:01:32.066Z,1007.40
2023-02-03T07:02:32.018Z,1007.44
2023-02-03T07:03:32.042Z,1007.36
2023-02-03T07:04:31.974Z,1007.36
2023-02-03T07:05:31.968Z,1007.43
2023-02-03T07:06:31.952Z,1007.38
2023-02-03T07:07:31.929Z,1007.34
2023-02-03T07:08:31.957Z,1007.39
2023-02-03T07:09:31.919Z,1007.46
2023-02-03T07:10:31.993Z,1007.46
2023-02-03T07:11:31.903Z,1007.37
2023-02-03T07:12:31.901Z,1007.42
2023-02-03T07:13:31.888Z,1007.44
2023-02-03T07:14:31.870Z,1007.47
2023-02-03T07:15:31.968Z,1007.50
2023-02-03T07:16:31.829Z,1007.51
2023-02-03T07:17:31.830Z,1007.57
2023-02-03T07:18:48.208Z,1007.54
2023-02-03T07:19:32.799Z,1007.51
2023-02-03T07:20:31.863Z,1007.46
2023-02-03T07:21:31.787Z,1007.40
2023-02-03T07:22:31.750Z,1007.34
2023-02-03T07:23:31.781Z,1007.28
2023-02-03T07:24:31.745Z,1007.30
2023-02-03T07:25:31.731Z,1007.38
2023-02-03T07:26:31.727Z,1007.41
2023-02-03T07:27:31.702Z,1007.44
2023-02-03T07:28:31.747Z,1007.32
2023-02-03T07:29:31.683Z,1007.31
2023-02-03T07:30:31.800Z,1007.20
2023-02-03T07:31:31.713Z,1007.29
2023-02-03T07:32:32.915Z,1007.32
2023-02-03T07:33:31.682Z,1007.09
2023-02-03T07:34:31.634Z,1007.18
2023-02-03T07:35:31.592Z,1007.10
2023-02-03T07:36:31.605Z,1007.17
2023-02-03T07:37:31.582Z,1007.17
2023-02-03T07:38:31.607Z,1007.16
2023-02-03T07:39:31.585Z,1007.17
2023-02-03T07:40:31.557Z,1007.22
2023-02-03T07:41:31.526Z,1007.23
2023-02-03T07:42:31.530Z,1007.16
2023-02-03T07:43:31.548Z,1007.11
2023-02-03T07:44:31.504Z,1007.08
2023-02-03T07:45:31.517Z,1007.02
2023-02-03T07:46:31.569Z,1006.99
2023-02-03T07:47:31.473Z,1006.97
2023-02-03T07:48:31.518Z,1006.86
2023-02-03T07:49:31.445Z,1006.79
2023-02-03T07:50:31.461Z,1006.85
2023-02-03T07:51:31.423Z,1006.77
2023-02-03T07:52:31.495Z,1006.70
2023-02-03T07:53:31.444Z,1006.67
2023-02-03T07:54:31.398Z,1006.77
2023-02-03T07:55:31.364Z,1006.73
2023-02-03T07:56:31.365Z,1006.71
2023-02-03T07:57:31.349Z,1006.67
2023-02-03T07:58:31.415Z,1006.66
2023-02-03T07:59:31.343Z,1006.62
2023-02-03T08:00:31.393Z,1006.54
2023-02-03T08:01:31.341Z,1006.48
2023-02-03T08:02:31.299Z,1006.48
2023-02-03T08:03:31.331Z,1006.47
2023-02-03T08:04:31.308Z,1006.53
2023-02-03T08:05:31.293Z,1006.55
2023-02-03T08:06:31.256Z,1006.50
2023-02-03T08:07:31.241Z,1006.37
2023-02-03T08:08:31.325Z,1006.41
2023-02-03T08:09:31.230Z,1006.39
2023-02-03T08:10:31.358Z,1006.41
2023-02-03T08:11:31.217Z,1006.40
2023-02-03T08:12:31.229Z,1006.38
2023-02-03T08:13:31.260Z,1006.38
2023-02-03T08:14:31.228Z,1006.36
2023-02-03T08:15:31.161Z,1006.28
2023-02-03T08:16:31.199Z,1006.28
2023-02-03T08:17:31.152Z,1006.34
2023-02-03T08:18:32.718Z,1006.31
2023-02-03T08:19:31.129Z,1006.20
2023-02-03T08:20:31.235Z,1006.16
2023-02-03T08:21:31.091Z,1006.13
2023-02-03T08:22:31.062Z,1006.10
2023-02-03T08:23:31.100Z,1006.09
2023-02-03T08:24:31.057Z,1005.90
2023-02-03T08:25:31.094Z,1006.05
2023-02-03T08:26:31.034Z,1006.06
2023-02-03T08:27:31.047Z,1006.08
2023-02-03T08:28:31.046Z,1005.77
2023-02-03T08:29:31.011Z,1005.98
2023-02-03T08:30:31.228Z,1005.98
2023-02-03T08:31:31.029Z,1005.95
2023-02-03T08:32:30.976Z,1005.92
2023-02-03T08:33:30.952Z,1005.83
2023-02-03T08:34:30.944Z,1005.83
2023-02-03T08:35:30.925Z,1005.79
2023-02-03T08:36:30.930Z,1005.84
2023-02-03T08:37:30.903Z,1005.78
2023-02-03T08:38:30.932Z,1005.78
2023-02-03T08:39:30.886Z,1005.68
2023-02-03T08:40:31.180Z,1005.70
2023-02-03T08:41:30.860Z,1005.61
2023-02-03T08:42:30.849Z,1005.60
2023-02-03T08:43:30.876Z,1005.51
2023-02-03T08:44:30.828Z,1005.66
2023-02-03T08:45:30.940Z,1005.75
2023-02-03T08:46:30.791Z,1005.58
2023-02-03T08:47:30.790Z,1005.59
2023-02-03T08:48:30.837Z,1005.58
2023-02-03T08:49:30.742Z,1005.58
2023-02-03T08:50:31.086Z,1005.60
2023-02-03T08:51:30.740Z,1005.59
2023-02-03T08:52:30.747Z,1005.55
2023-02-03T08:53:30.733Z,1005.58
2023-02-03T08:54:30.755Z,1005.48
2023-02-03T08:55:30.700Z,1005.58
2023-02-03T08:56:30.688Z,1005.65
2023-02-03T08:57:30.673Z,1005.52
2023-02-03T08:58:30.654Z,1005.40
2023-02-03T08:59:30.693Z,1005.40
2023-02-03T09:00:30.833Z,1005.43
2023-02-03T09:01:30.656Z,1005.32
2023-02-03T09:02:30.623Z,1005.33
2023-02-03T09:03:30.615Z,1005.36
2023-02-03T09:04:30.633Z,1005.34
2023-02-03T09:05:30.585Z,1005.33
2023-02-03T09:06:30.597Z,1005.25
2023-02-03T09:07:30.556Z,1005.32
2023-02-03T09:08:30.562Z,1005.21
2023-02-03T09:09:31.161Z,1005.18
2023-02-03T09:10:30.840Z,1005.20
2023-02-03T09:11:30.509Z,1005.27
2023-02-03T09:12:30.511Z,1005.31
2023-02-03T09:13:30.503Z,1005.22
2023-02-03T09:14:30.511Z,1005.15
2023-02-03T09:15:30.477Z,1005.09
2023-02-03T09:16:30.519Z,1005.06
2023-02-03T09:17:30.461Z,1005.14
2023-02-03T09:18:30.435Z,1005.09
2023-02-03T09:19:30.459Z,1005.05
2023-02-03T09:20:30.794Z,1005.03
2023-02-03T09:21:38.869Z,1005.09
2023-02-03T09:22:31.378Z,1004.99
2023-02-03T09:23:30.384Z,1004.94
2023-02-03T09:24:30.409Z,1004.96
2023-02-03T09:25:30.387Z,1005.02
2023-02-03T09:26:30.343Z,1004.92
2023-02-03T09:27:30.337Z,1004.91
2023-02-03T09:28:30.338Z,1004.84
2023-02-03T09:29:30.345Z,1004.91
2023-02-03T09:30:30.804Z,1004.96
2023-02-03T09:31:30.335Z,1004.93
2023-02-03T09:32:30.300Z,1004.90
2023-02-03T09:33:30.258Z,1004.84
2023-02-03T09:34:30.312Z,1004.75
2023-02-03T09:35:30.262Z,1004.72
2023-02-03T09:36:30.245Z,1004.74
2023-02-03T09:37:30.220Z,1004.67
2023-02-03T09:38:30.228Z,1004.74
2023-02-03T09:39:30.248Z,1004.61
2023-02-03T09:40:30.583Z,1004.63
2023-02-03T09:41:30.190Z,1004.60
2023-02-03T09:42:30.170Z,1004.55
2023-02-03T09:43:30.159Z,1004.56
2023-02-03T09:44:30.173Z,1004.57
2023-02-03T09:45:30.122Z,1004.55
2023-02-03T09:46:30.153Z,1004.41
2023-02-03T09:47:30.094Z,1004.46
2023-02-03T09:48:30.089Z,1004.44
2023-02-03T09:49:30.110Z,1004.32
2023-02-03T09:50:30.392Z,1004.38
2023-02-03T09:51:30.058Z,1004.35
2023-02-03T09:52:30.053Z,1004.29
2023-02-03T09:53:30.032Z,1004.36
2023-02-03T09:54:30.085Z,1004.23
2023-02-03T09:55:30.029Z,1004.27
2023-02-03T09:56:30.011Z,1004.21
2023-02-03T09:57:29.990Z,1004.22
2023-02-03T09:58:29.981Z,1004.15
2023-02-03T09:59:30.033Z,1004.21
2023-02-03T10:00:30.191Z,1004.12
2023-02-03T10:01:30.002Z,1004.08
2023-02-03T10:02:29.955Z,1004.05
2023-02-03T10:03:29.949Z,1003.96
2023-02-03T10:04:29.943Z,1003.80
2023-02-03T10:05:29.897Z,1003.96
2023-02-03T10:06:29.895Z,1003.91
2023-02-03T10:07:29.876Z,1003.94
2023-02-03T10:08:29.860Z,1003.99
2023-02-03T10:09:29.840Z,1003.93
2023-02-03T10:10:30.138Z,1003.96
2023-02-03T10:11:29.822Z,1003.90
2023-02-03T10:12:29.816Z,1003.98
2023-02-03T10:13:29.818Z,1003.91
2023-02-03T10:14:29.801Z,1003.84
2023-02-03T10:15:29.816Z,1003.91
2023-02-03T10:16:29.835Z,1003.95
2023-02-03T10:17:29.752Z,1003.81
2023-02-03T10:18:29.769Z,1003.84
2023-02-03T10:19:29.739Z,1003.91
2023-02-03T10:20:30.007Z,1003.86
2023-02-03T10:21:29.719Z,1003.81
2023-02-03T10:22:29.699Z,1003.77
2023-02-03T10:23:29.708Z,1003.82
2023-02-03T10:24:29.697Z,1003.68
2023-02-03T10:25:29.705Z,1003.72
2023-02-03T10:26:29.686Z,1003.61
2023-02-03T10:27:29.648Z,1003.67
2023-02-03T10:28:29.659Z,1003.65
2023-02-03T10:29:29.618Z,1003.63
2023-02-03T10:30:30.152Z,1003.47
2023-02-03T10:31:29.678Z,1003.56
2023-02-03T10:32:29.603Z,1003.60
2023-02-03T10:33:29.578Z,1003.60
2023-02-03T10:34:29.544Z,1003.39
2023-02-03T10:35:29.601Z,1003.41
2023-02-03T10:36:29.537Z,1003.40
2023-02-03T10:37:30.444Z,1003.46
2023-02-03T10:38:29.525Z,1003.39
2023-02-03T10:39:29.507Z,1003.40
2023-02-03T10:40:29.964Z,1003.33
2023-02-03T10:41:29.481Z,1003.28
2023-02-03T10:42:29.466Z,1003.31
2023-02-03T10:43:29.452Z,1003.31
2023-02-03T10:44:29.433Z,1003.33
2023-02-03T10:45:29.466Z,1003.28
2023-02-03T10:46:29.473Z,1003.22
2023-02-03T10:47:29.397Z,1003.08
2023-02-03T10:48:29.387Z,1003.03
2023-02-03T10:49:29.395Z,1003.05
2023-02-03T10:50:29.802Z,1003.08
2023-02-03T10:51:29.360Z,1003.08
2023-02-03T10:52:29.331Z,1002.97
2023-02-03T10:53:29.341Z,1002.95
2023-02-03T10:54:29.333Z,1002.90
2023-02-03T10:55:29.341Z,1002.89
2023-02-03T10:56:29.301Z,1002.82
2023-02-03T10:57:29.307Z,1002.83
2023-02-03T10:58:29.297Z,1002.75
2023-02-03T10:59:29.304Z,1002.89
2023-02-03T11:00:29.874Z,1002.79
2023-02-03T11:01:29.269Z,1002.70
2023-02-03T11:02:29.339Z,1002.71
2023-02-03T11:03:29.253Z,1002.66
2023-02-03T11:04:29.247Z,1002.61
2023-02-03T11:05:29.266Z,1002.64
2023-02-03T11:06:29.198Z,1002.61
2023-02-03T11:07:29.190Z,1002.55
2023-02-03T11:08:29.152Z,1002.55
2023-02-03T11:09:29.159Z,1002.34
2023-02-03T11:10:29.522Z,1002.35
2023-02-03T11:11:29.140Z,1002.30
2023-02-03T11:12:29.111Z,1002.35
2023-02-03T11:13:29.112Z,1002.39
2023-02-03T11:14:29.067Z,1002.33
2023-02-03T11:15:29.281Z,1002.29
2023-02-03T11:16:29.120Z,1002.39
2023-02-03T11:17:29.079Z,1002.30
2023-02-03T11:18:29.047Z,1002.26
2023-02-03T11:19:29.091Z,1002.30
2023-02-03T11:20:29.416Z,1002.23
2023-02-03T11:21:29.056Z,1002.25
2023-02-03T11:22:29.004Z,1002.23
2023-02-03T11:23:28.991Z,1002.23
2023-02-03T11:24:28.982Z,1002.21
2023-02-03T11:25:28.957Z,1002.10
2023-02-03T11:26:28.989Z,1002.25
2023-02-03T11:27:28.941Z,1002.25
2023-02-03T11:28:28.915Z,1002.16
2023-02-03T11:29:28.931Z,1002.21
2023-02-03T11:30:29.174Z,1002.24
2023-02-03T11:31:29.082Z,1002.26
2023-02-03T11:32:28.907Z,1002.22
2023-02-03T11:33:28.872Z,1002.23
2023-02-03T11:34:28.863Z,1002.21
2023-02-03T11:35:28.857Z,1002.16
2023-02-03T11:36:28.887Z,1002.23
2023-02-03T11:37:28.827Z,1002.23
2023-02-03T11:38:28.817Z,1002.35
2023-02-03T11:39:28.812Z,1002.24
2023-02-03T11:40:29.244Z,1002.17
2023-02-03T11:41:28.835Z,1002.17
2023-02-03T11:42:28.751Z,1002.11
2023-02-03T11:43:28.752Z,1002.06
2023-02-03T11:44:28.744Z,1002.16
2023-02-03T11:45:28.744Z,1002.19
2023-02-03T11:46:28.810Z,1002.13
2023-02-03T11:47:28.728Z,1002.26
2023-02-03T11:48:28.698Z,1002.18
2023-02-03T11:49:28.713Z,1002.14
2023-02-03T11:50:28.988Z,1002.08
2023-02-03T11:51:28.693Z,1002.08
2023-02-03T11:52:28.696Z,1002.17
2023-02-03T11:53:28.620Z,1002.06
2023-02-03T11:54:28.640Z,1002.09
2023-02-03T11:55:28.606Z,1002.13
2023-02-03T11:56:28.597Z,1002.20
2023-02-03T11:57:28.636Z,1002.27
2023-02-03T11:58:28.581Z,1002.41
2023-02-03T11:59:28.573Z,1002.59
2023-02-03T12:00:28.851Z,1002.91
2023-02-03T12:01:28.569Z,1003.55
2023-02-03T12:02:28.606Z,1003.41
2023-02-03T12:03:28.538Z,1003.42
2023-02-03T12:04:28.506Z,1003.67
2023-02-03T12:05:28.516Z,1003.52